Hlavní strana
METAR-TAF:

METAR-TAF

Letiště :

Kristiansund, Norsko

zeměpisná šířka: 63-07N, zeměpisná délka: 007-50E, výška: 6 m

Aktuální stav počasí

Zpráva byla vytvořena před 30 minutami, v 08:50 UTC
Západojihozápadní vítr 6 kt
Teplota 3°C
Vlhkost vzduchu 93%
Tlak 1007 hPa
Viditelnost 10 km a více
Skoro jasno ve výšce 900 ft
Polojasno ve výšce 2000 ft
Oblačno až skoro zataženo ve výšce 3000 ft
slabé mrholení

METAR: ENKB 160850Z 24006KT 9999 -DZ FEW009 SCT020 BKN030 03/02 Q1007 RMK WIND 745FT 23011KT

Čas: 10:20 (09:20 UTC)

Předpověď počasí

Zpráva byla vytvořena před 1 hodinou a 20 minutami, v 08:00 UTC
Předpověď platná od 16 v 09 UTC do 16 v 16 UTC
Jihozápadní vítr 8 kt
Viditelnost 10 km a více
Polojasno ve výšce 1000 ft
Oblačno až skoro zataženo ve výšce 2500 ft
slabý déšť
Změna
od 16 v 10 UTC do 16 v 12 UTC
Západoseverozápadní vítr 10 kt

TAF: ENKB 160800Z 1609/1616 23008KT 9999 -RA SCT010 BKN025 BECMG 1610/1612 30010KT

Stav a předpovědi počasí z více než 4 000 letišť (zprávy METAR a TAF).

Červené a žluté tečky na mapě představují dostupné meteorologické stanice.

Když kurzor umístíte na tečku, zobrazí se název stanice.

Pak kliknutím zobrazíte stav a předpověď počasí.

Chcete-li změnit mapu, kliknutím na zelené tlačítko se znaménkem +mapu přiblížíte, kliknutím na zelené tlačítko se znaménkem – mapu oddálíte a kliknutím na zelené šipky přejdete na sousední mapy.


METAR-TAF: